Aérodrome :
LOGIN :

S'inscrire | Disclaimer

   EN    FR    IT 

 










Légende :    VFR   VFR Marginal   IFR   IFR Intensif   IFR Très Intensif
Visi : 
Plafond : 
>= 8 km
>= 3000ft
5 à 8 km
1000 à 3000 ft
1500m à 5 km
500 à 1000 ft
800 à 1500m
200 à 500 ft
< 800m
< 200 ft
Symboles :   Orages  Brouillard  Fortes neiges  Fortes précipitations  Vent > 20 kt
SIGMETs :   Divers  Orages  Givrage  Turbulence  Onde Orograph.  Cendres Volcan.






- Altitude de l'aérodrome : 17 ft
- Code IATA : GRS


LIRS - Grosseto

DERNIER METAR :
  • 260555Z VRB02KT CAVOK 17/13 Q1018 RMK SKC VIS MIN 9999 WIND THR03 06002KT WIND THR21 01002KT BLU

METARs EXPIRÉS :
  • 260455Z 04004KT CAVOK 14/11 Q1017 RMK SKC VIS MIN 9999 WIND THR03 04005KT WIND THR21 03005KT BLU
  • 260355Z 03005KT CAVOK 12/09 Q1017
  • 260255Z 33003KT CAVOK 13/10 Q1017 RMK SCT SCT090 VIS MIN 9999 WIND THR03 02005KT WIND THR21 34004KT BLU
  • 260155Z 05005KT CAVOK 13/11 Q1017

Prévision TAF périmée.



MET'MAP, la Météo Aéronautique d'un coup d'oeil ! - Copyright ORBIFLY Décembre 2007 - Disclaimer

ORBIFLY MET'MAP TEAM :

Programmation & Développement : Alexandra Zaïnal
Sur une idée originale de : Baudouin d'Aumeries
Soutien technique & logistique : Manuel Goepfert
Assistance : Marc-Olivier Méhu




SOURCES & CREDITS :

   NOAA